Flight Track Log - Related Links

Times and Time Zones

All times are in EDT time to prevent confusion due to time zone crossing. See the ASQ4283 flight status page for this flight to view local times or setup timezone preferences in your user account.

Time Position Orientation Groundspeed Altitude Reporting Facility
EDT Latitude Longitude Course Direction KTS MPH feet Rate Location/Type
Mon 12:15:06 PM 29.9619 -95.3458 76° East 157 181 600  Level Houston Center
Mon 12:16:26 PM 29.9736 -95.2914 76° East 242 278 2,600 1,306 Climbing Houston Center
Mon 12:17:10 PM 30.0142 -95.2994 350° North 254 292 3,300 1,914 Climbing Houston Center
Mon 12:18:22 PM 30.1156 -95.3272 347° North 282 325 6,300 2,323 Climbing Houston Center
Mon 12:19:14 PM 30.1808 -95.3431 348° North 283 326 8,100 1,947 Climbing Houston Center
Mon 12:20:16 PM 30.2594 -95.3644 347° North 289 333 10,000 1,742 Climbing Houston Center
Mon 12:21:18 PM 30.3386 -95.3578 North 294 338 11,700 1,355 Climbing Houston Center
Mon 12:22:20 PM 30.4081 -95.3069 32° Northeast 304 350 12,800 864 Climbing Houston Center
Mon 12:23:23 PM 30.4864 -95.2342 39° Northeast 333 383 13,500 864 Climbing Houston Center
Mon 12:24:25 PM 30.5656 -95.1667 36° Northeast 350 403 14,600 1,065 Climbing Houston Center
Mon 12:25:27 PM 30.6442 -95.0983 37° Northeast 354 407 15,700 1,113 Climbing Houston Center
Mon 12:26:29 PM 30.7403 -95.0142 37° Northeast 359 413 16,900 968 Climbing Houston Center
Mon 12:27:31 PM 30.8203 -94.9447 37° Northeast 360 414 17,700 871 Climbing Houston Center
Mon 12:28:33 PM 30.9011 -94.8736 37° Northeast 364 419 18,700 968 Climbing Houston Center
Mon 12:29:35 PM 30.9819 -94.8019 37° Northeast 367 422 19,700 968 Climbing Houston Center
Mon 12:30:37 PM 31.0628 -94.7311 37° Northeast 366 421 20,700 1,065 Climbing Houston Center
Mon 12:31:39 PM 31.1592 -94.6456 37° Northeast 370 426 21,900 1,056 Climbing Houston Center
Mon 12:32:42 PM 31.2392 -94.5747 37° Northeast 370 426 22,900 960 Climbing Houston Center
Mon 12:33:44 PM 31.3197 -94.5044 37° Northeast 367 422 23,900 968 Climbing Houston Center
Mon 12:34:46 PM 31.4006 -94.4336 37° Northeast 365 420 24,900 1,065 Climbing Houston Center
Mon 12:35:48 PM 31.4969 -94.3481 37° Northeast 363 418 26,100 1,065 Climbing Houston Center
Mon 12:36:50 PM 31.5603 -94.2589 50° Northeast 353 406 27,100 1,016 Climbing Houston Center
Mon 12:37:52 PM 31.6225 -94.1661 52° Northeast 359 413 28,200 1,016 Climbing Houston Center
Mon 12:38:54 PM 31.6836 -94.0739 52° Northeast 358 412 29,200 968 Climbing Houston Center
Mon 12:39:56 PM 31.7447 -93.9825 52° Northeast 356 410 30,200 968 Climbing Houston Center
Mon 12:40:58 PM 31.8028 -93.8944 52° Northeast 353 406 31,200 1,065 Climbing Houston Center
Mon 12:42:00 PM 31.8756 -93.7842 52° Northeast 355 409 32,400 1,065 Climbing Houston Center
Mon 12:43:02 PM 31.9361 -93.6925 52° Northeast 355 409 33,400 932 Climbing Houston Center
Mon 12:44:41 PM 32.0308 -93.5489 52° Northeast 351 404 34,900 604 Climbing Fort Worth Center
Mon 12:45:41 PM 32.0928 -93.4556 52° Northeast 351 404 35,000 50 Climbing Fort Worth Center
Mon 12:46:41 PM 32.1606 -93.3547 52° Northeast 362 417 35,000  Level Fort Worth Center
Mon 12:47:41 PM 32.2236 -93.2436 56° Northeast 382 440 35,000  Level Fort Worth Center
Mon 12:48:41 PM 32.2972 -93.1347 51° Northeast 402 463 35,000  Level Fort Worth Center
Mon 12:49:41 PM 32.3708 -93.0303 50° Northeast 409 471 35,000  Level Fort Worth Center
Mon 12:50:41 PM 32.4419 -92.9114 55° Northeast 423 487 35,000  Level Fort Worth Center
Mon 12:51:41 PM 32.5150 -92.7992 52° Northeast 429 494 35,000  Level Fort Worth Center
Mon 12:52:41 PM 32.5861 -92.6897 52° Northeast 424 488 35,000  Level Fort Worth Center
Mon 12:53:41 PM 32.6550 -92.5825 53° Northeast 419 482 35,000  Level Fort Worth Center
Mon 12:54:41 PM 32.7261 -92.4750 52° Northeast 414 476 35,000  Level Fort Worth Center
Mon 12:55:41 PM 32.7928 -92.3675 54° Northeast 409 471 35,000  Level Fort Worth Center
Mon 12:56:41 PM 32.8633 -92.2572 53° Northeast 409 471 35,000  Level Fort Worth Center
Mon 12:57:41 PM 32.9339 -92.1467 53° Northeast 409 471 35,000  Level Fort Worth Center
Mon 12:59:14 PM 33.0478 -91.9633 53° Northeast 421 484 35,000  Level Memphis Center
Mon 01:00:14 PM 33.1222 -91.8506 52° Northeast 427 491 35,000  Level Memphis Center
Mon 01:01:14 PM 33.1906 -91.7350 55° Northeast 427 491 35,000  Level Memphis Center
Mon 01:02:14 PM 33.2583 -91.6242 54° Northeast 427 491 35,000  Level Memphis Center
Mon 01:03:14 PM 33.3347 -91.5058 52° Northeast 432 497 35,000  Level Memphis Center
Mon 01:04:14 PM 33.4044 -91.3925 54° Northeast 432 497 35,000  Level Memphis Center
Mon 01:05:14 PM 33.4764 -91.2786 53° Northeast 432 497 35,000  Level Memphis Center
Mon 01:06:14 PM 33.5439 -91.1647 55° Northeast 432 497 35,000  Level Memphis Center
Mon 01:07:14 PM 33.6178 -91.0481 53° Northeast 432 497 35,000  Level Memphis Center
Mon 01:08:14 PM 33.6872 -90.9364 53° Northeast 432 497 35,000  Level Memphis Center
Mon 01:09:14 PM 33.7567 -90.8194 54° Northeast 427 491 35,000  Level Memphis Center
Mon 01:10:14 PM 33.8133 -90.7297 53° Northeast 432 497 35,000  Level Memphis Center
Mon 01:11:14 PM 33.8950 -90.5900 55° Northeast 432 497 35,000  Level Memphis Center
Mon 01:12:14 PM 33.9639 -90.4775 54° Northeast 427 491 35,000  Level Memphis Center
Mon 01:13:14 PM 34.0328 -90.3647 54° Northeast 427 491 35,000  Level Memphis Center
Mon 01:14:14 PM 34.1017 -90.2494 54° Northeast 427 491 35,000  Level Memphis Center
Mon 01:15:14 PM 34.1683 -90.1364 55° Northeast 421 484 35,000  Level Memphis Center
Mon 01:16:14 PM 34.2369 -90.0206 54° Northeast 421 484 35,000  Level Memphis Center
Mon 01:17:14 PM 34.3056 -89.9069 54° Northeast 416 479 35,000  Level Memphis Center
Mon 01:18:14 PM 34.3717 -89.7936 55° Northeast 416 479 35,000  Level Memphis Center
Mon 01:19:14 PM 34.4381 -89.6772 55° Northeast 416 479 35,000  Level Memphis Center
Mon 01:20:14 PM 34.5061 -89.5608 55° Northeast 421 484 35,000  Level Memphis Center
Mon 01:21:14 PM 34.5742 -89.4439 55° Northeast 421 484 35,000  Level Memphis Center
Mon 01:22:14 PM 34.6422 -89.3297 54° Northeast 421 484 35,000  Level Memphis Center
Mon 01:23:14 PM 34.7119 -89.2100 55° Northeast 421 484 35,000  Level Memphis Center
Mon 01:24:14 PM 34.7797 -89.0978 54° Northeast 421 484 35,000  Level Memphis Center
Mon 01:25:14 PM 34.8472 -88.9806 55° Northeast 421 484 35,000  Level Memphis Center
Mon 01:26:14 PM 34.9086 -88.8731 55° Northeast 421 484 35,000  Level Memphis Center
Mon 01:27:14 PM 34.9761 -88.7581 54° Northeast 421 484 35,000  Level Memphis Center
Mon 01:28:14 PM 35.0433 -88.6450 54° Northeast 419 482 35,000  Level Memphis Center
Mon 01:29:14 PM 35.1106 -88.5269 55° Northeast 419 482 35,000  Level Memphis Center
Mon 01:30:14 PM 35.1817 -88.4033 55° Northeast 408 470 35,000  Level Memphis Center
Mon 01:31:14 PM 35.2508 -88.2847 54° Northeast 408 470 35,000  Level Memphis Center
Mon 01:32:14 PM 35.3156 -88.1711 55° Northeast 413 475 35,000  Level Memphis Center
Mon 01:33:14 PM 35.3842 -88.0497 55° Northeast 413 475 35,000  Level Memphis Center
Mon 01:34:14 PM 35.4467 -87.9358 56° Northeast 408 470 35,000  Level Memphis Center
Mon 01:35:14 PM 35.5131 -87.8167 56° Northeast 408 470 35,000  Level Memphis Center
Mon 01:36:14 PM 35.5500 -87.6803 72° East 412 474 35,000  Level Memphis Center
Mon 01:37:14 PM 35.5803 -87.5389 75° East 412 474 35,000  Level Memphis Center
Mon 01:38:14 PM 35.6125 -87.4000 74° East 417 480 35,000  Level Memphis Center
Mon 01:39:14 PM 35.6425 -87.2633 75° East 417 480 35,000  Level Memphis Center
Mon 01:40:14 PM 35.6744 -87.1242 74° East 422 486 35,000  Level Memphis Center
Mon 01:41:14 PM 35.7042 -86.9875 75° East 417 480 35,000  Level Memphis Center
Mon 01:42:14 PM 35.7378 -86.8481 73° East 417 480 35,000  Level Memphis Center
Mon 01:43:14 PM 35.7633 -86.7242 76° East 417 480 35,000  Level Memphis Center
Mon 01:44:14 PM 35.7967 -86.5844 74° East 417 480 35,000  Level Memphis Center
Mon 01:45:14 PM 35.8258 -86.4450 75° East 417 480 35,000  Level Memphis Center
Mon 01:46:14 PM 35.8569 -86.3078 74° East 417 480 35,000  Level Memphis Center
Mon 01:47:14 PM 35.8875 -86.1653 75° East 417 480 35,000  Level Memphis Center
Mon 01:49:09 PM 35.9483 -85.8881 75° East 421 484 35,000  Level Atlanta Center
Mon 01:50:09 PM 35.9753 -85.7681 74° East 411 473 35,000  Level Atlanta Center
Mon 01:51:09 PM 36.0064 -85.6328 74° East 411 473 35,000  Level Atlanta Center
Mon 01:52:09 PM 36.0350 -85.4919 76° East 411 473 35,000  Level Atlanta Center
Mon 01:53:09 PM 36.0325 -85.3483 91° East 411 473 35,000  Level Atlanta Center
Mon 01:54:09 PM 36.0214 -85.2044 95° East 406 467 35,000  Level Atlanta Center
Mon 01:55:09 PM 36.0103 -85.0578 95° East 416 479 35,000  Level Atlanta Center
Mon 01:56:09 PM 36.0011 -84.8986 94° East 421 484 35,000  Level Atlanta Center
Mon 01:57:09 PM 35.9853 -84.7469 97° East 431 496 35,000  Level Atlanta Center
Mon 01:58:09 PM 35.9694 -84.6033 98° East 431 496 35,000 -150 Level Atlanta Center
Mon 01:59:09 PM 35.9575 -84.4594 96° East 425 489 34,700 -700 Descending Atlanta Center
Mon 02:00:09 PM 35.9433 -84.3131 97° East 425 489 33,600 -850 Descending Atlanta Center
Mon 02:01:09 PM 35.9289 -84.1644 97° East 430 495 33,000 -300 Descending Atlanta Center
Mon 02:02:09 PM 35.9164 -84.0131 96° East 430 495 33,000 -200 Level Atlanta Center
Mon 02:03:09 PM 35.9039 -83.8619 96° East 435 501 32,600 -950 Descending Atlanta Center
Mon 02:04:09 PM 35.9014 -83.7081 91° East 440 506 31,100 -1,600 Descending Atlanta Center
Mon 02:05:09 PM 35.8967 -83.5569 92° East 440 506 29,400 -1,050 Descending Atlanta Center
Mon 02:06:09 PM 35.8961 -83.4006 90° East 440 506 29,000 -200 Descending Atlanta Center
Mon 02:07:09 PM 35.8908 -83.2467 92° East 440 506 29,000  Level Atlanta Center
Mon 02:08:09 PM 35.8836 -83.0931 93° East 440 506 29,000  Level Atlanta Center
Mon 02:09:09 PM 35.8531 -82.9397 104° East 445 512 29,000 -300 Level Atlanta Center
Mon 02:10:09 PM 35.8267 -82.7864 102° East 453 521 28,400 -1,050 Descending Atlanta Center
Mon 02:11:09 PM 35.8000 -82.6356 102° East 453 521 26,900 -1,750 Descending Atlanta Center
Mon 02:12:09 PM 35.7731 -82.4800 102° East 453 521 24,900 -7,950 Descending Atlanta Center
Mon 02:13:09 PM 35.7439 -82.3269 103° East 453 521 11,000 -2,550 Descending Atlanta Center
Mon 02:14:09 PM 35.7208 -82.1792 101° East 453 521 19,800 3,300 Climbing Atlanta Center
Mon 02:15:09 PM 35.6914 -82.0317 104° East 447 514 17,600 -2,411 Descending Atlanta Center
Mon 02:16:01 PM 35.6686 -81.9144 103° East 416 479 15,300 -2,550 Descending Atlanta Center
Mon 02:17:09 PM 35.6431 -81.7644 102° East 402 463 12,500 -2,016 Descending Atlanta Center
Mon 02:18:09 PM 35.6175 -81.6400 104° East 383 441 11,000 -750 Descending Atlanta Center
Mon 02:19:09 PM 35.5781 -81.5417 116° Southeast 339 390 11,000 -400 Level Atlanta Center
Mon 02:20:09 PM 35.5469 -81.4481 112° Southeast 306 352 10,200 -1,075 Descending Atlanta Center
Mon 02:21:23 PM 35.5233 -81.3236 103° East 304 350 8,600 -978 Descending Atlanta Center
Mon 02:22:24 PM 35.5069 -81.2350 103° East 260 299 8,000 -792 Descending Atlanta Center
Mon 02:23:09 PM 35.4928 -81.1692 105° East 266 306 7,200 -1,257 Descending Atlanta Center
Mon 02:24:09 PM 35.4761 -81.0881 104° East 254 292 5,800 -1,314 Descending Atlanta Center
Mon 02:25:26 PM 35.4222 -81.0111 131° Southeast 233 268 4,200 -1,174 Descending Atlanta Center
Mon 02:26:27 PM 35.3653 -80.9825 158° South 218 251 3,100 -1,082 Descending Atlanta Center

Login

Don't have an account? Register now (free) for customized features, flight alerts, and more!